createdAt,value
2022-08-07T00:00:24.462Z,15.82
2022-08-07T00:02:51.086Z,21.88
2022-08-07T00:05:20.315Z,18.92
2022-08-07T00:13:17.390Z,22.63
2022-08-07T00:15:51.576Z,20.92
2022-08-07T00:18:20.364Z,17.45
2022-08-07T00:20:51.687Z,18.45
2022-08-07T00:23:18.498Z,25.08
2022-08-07T00:25:59.023Z,13.85
2022-08-07T00:28:33.416Z,19.50
2022-08-07T00:31:01.555Z,19.30
2022-08-07T00:33:34.515Z,17.77
2022-08-07T00:36:01.508Z,21.40
2022-08-07T00:38:31.316Z,23.10
2022-08-07T00:40:58.980Z,21.92
2022-08-07T00:43:59.702Z,17.48
2022-08-07T00:46:12.265Z,20.92
2022-08-07T00:48:42.149Z,18.25
2022-08-07T00:51:09.586Z,14.95
2022-08-07T00:53:50.428Z,16.05
2022-08-07T00:58:47.478Z,19.30
2022-08-07T01:01:16.483Z,14.57
2022-08-07T01:03:56.903Z,16.08
2022-08-07T01:06:28.671Z,21.15
2022-08-07T01:08:58.328Z,16.20
2022-08-07T01:12:27.805Z,15.88
2022-08-07T01:14:12.034Z,16.77
2022-08-07T01:16:42.931Z,21.65
2022-08-07T01:19:14.807Z,16.00
2022-08-07T01:21:46.579Z,17.65
2022-08-07T01:24:14.026Z,19.73
2022-08-07T01:26:45.193Z,14.82
2022-08-07T01:29:18.262Z,20.23
2022-08-07T01:31:48.071Z,16.33
2022-08-07T01:34:15.643Z,19.23
2022-08-07T01:36:42.182Z,13.85
2022-08-07T01:39:10.914Z,20.58
2022-08-07T01:41:38.945Z,20.75
2022-08-07T01:44:07.447Z,15.55
2022-08-07T01:46:36.692Z,14.88
2022-08-07T01:49:06.630Z,26.15
2022-08-07T01:52:03.553Z,13.88
2022-08-07T01:54:36.658Z,20.63
2022-08-07T01:57:29.858Z,14.48
2022-08-07T02:00:03.574Z,19.27
2022-08-07T02:03:19.198Z,18.00
2022-08-07T02:05:47.957Z,22.65
2022-08-07T02:08:16.151Z,18.45
2022-08-07T02:10:43.504Z,14.82
2022-08-07T02:13:16.297Z,18.05
2022-08-07T02:15:43.390Z,16.73
2022-08-07T02:18:11.095Z,17.15
2022-08-07T02:20:39.607Z,15.00
2022-08-07T02:23:09.724Z,15.43
2022-08-07T02:26:32.059Z,16.50
2022-08-07T02:28:27.399Z,11.52
2022-08-07T02:30:56.295Z,16.95
2022-08-07T02:33:23.732Z,12.02
2022-08-07T02:36:29.206Z,10.75
2022-08-07T02:38:51.032Z,13.35
2022-08-07T02:41:25.331Z,24.70
2022-08-07T02:44:01.398Z,14.80
2022-08-07T02:46:30.237Z,15.82
2022-08-07T02:48:56.661Z,13.70
2022-08-07T02:51:42.009Z,15.20
2022-08-07T02:54:11.281Z,17.75
2022-08-07T02:56:42.153Z,11.23
2022-08-07T02:59:10.263Z,10.77
2022-08-07T03:01:40.153Z,12.35
2022-08-07T03:04:12.352Z,13.30
2022-08-07T03:06:44.835Z,15.23
2022-08-07T03:09:13.667Z,15.63
2022-08-07T03:11:51.610Z,14.02
2022-08-07T03:14:20.167Z,16.17
2022-08-07T03:16:49.214Z,13.88
2022-08-07T03:19:15.613Z,13.57
2022-08-07T03:21:50.507Z,11.65
2022-08-07T03:24:19.468Z,12.82
2022-08-07T03:26:58.997Z,10.43
2022-08-07T03:29:28.063Z,13.68
2022-08-07T03:31:55.810Z,14.73
2022-08-07T03:34:27.333Z,16.10
2022-08-07T03:39:45.890Z,12.48
2022-08-07T03:42:07.763Z,15.75
2022-08-07T03:44:35.755Z,15.63
2022-08-07T03:47:13.678Z,15.63
2022-08-07T03:49:42.522Z,13.45
2022-08-07T03:52:22.594Z,11.38
2022-08-07T03:54:54.210Z,7.35
2022-08-07T03:59:06.866Z,14.13
2022-08-07T04:00:10.489Z,13.55
2022-08-07T04:02:37.036Z,9.63
2022-08-07T04:05:07.995Z,12.50
2022-08-07T04:07:41.626Z,10.07
2022-08-07T04:10:15.758Z,14.50
2022-08-07T04:12:47.258Z,13.55
2022-08-07T04:15:15.007Z,13.48
2022-08-07T04:18:31.940Z,11.40
2022-08-07T04:20:29.551Z,15.50
2022-08-07T04:23:01.961Z,10.27
2022-08-07T04:25:39.075Z,11.80
2022-08-07T04:28:08.243Z,17.13
2022-08-07T04:30:39.162Z,15.43
2022-08-07T04:33:13.752Z,16.77
2022-08-07T04:35:41.572Z,15.40
2022-08-07T04:38:08.612Z,13.80
2022-08-07T04:40:35.965Z,10.52
2022-08-07T04:43:11.072Z,8.13
2022-08-07T04:46:01.075Z,15.40
2022-08-07T04:48:44.670Z,9.57
2022-08-07T04:51:31.936Z,9.93
2022-08-07T04:54:06.288Z,7.28
2022-08-07T04:58:15.221Z,9.95
2022-08-07T05:00:10.907Z,16.05
2022-08-07T05:02:33.764Z,7.50
2022-08-07T05:05:03.628Z,10.45
2022-08-07T05:07:55.917Z,14.07
2022-08-07T05:10:30.729Z,15.15
2022-08-07T05:14:44.541Z,10.60
2022-08-07T05:15:50.888Z,10.32
2022-08-07T05:18:21.004Z,8.23
2022-08-07T05:20:50.214Z,7.95
2022-08-07T05:23:19.650Z,7.68
2022-08-07T05:26:10.824Z,9.63
2022-08-07T05:28:40.629Z,6.85
2022-08-07T05:31:07.398Z,8.55
2022-08-07T05:33:35.637Z,11.60
2022-08-07T05:36:04.414Z,10.13
2022-08-07T05:38:59.384Z,8.55
2022-08-07T05:41:22.412Z,10.40
2022-08-07T05:44:11.765Z,9.23
2022-08-07T05:46:37.682Z,9.27
2022-08-07T05:49:11.911Z,9.10
2022-08-07T05:51:39.934Z,9.40
2022-08-07T05:54:12.939Z,13.63
2022-08-07T05:56:54.295Z,9.70
2022-08-07T05:59:22.333Z,13.00
2022-08-07T06:01:49.967Z,7.40
2022-08-07T06:04:18.205Z,10.68
2022-08-07T06:06:47.763Z,11.70
2022-08-07T06:10:04.676Z,7.22
2022-08-07T06:12:09.947Z,9.43
2022-08-07T06:14:38.854Z,8.45
2022-08-07T06:17:12.549Z,10.88
2022-08-07T06:20:03.303Z,10.48
2022-08-07T06:22:28.741Z,9.00
2022-08-07T06:24:58.547Z,11.48
2022-08-07T06:27:59.768Z,8.65
2022-08-07T06:30:31.915Z,7.60
2022-08-07T06:33:01.330Z,12.43
2022-08-07T06:35:30.568Z,8.73
2022-08-07T06:38:08.162Z,9.50
2022-08-07T06:40:46.081Z,14.80
2022-08-07T06:43:21.560Z,10.25
2022-08-07T06:45:49.165Z,12.50
2022-08-07T06:48:15.793Z,13.27
2022-08-07T06:50:51.806Z,11.15
2022-08-07T06:55:28.954Z,10.27
2022-08-07T06:56:07.546Z,10.25
2022-08-07T07:00:16.992Z,12.07
2022-08-07T07:01:33.271Z,11.98
2022-08-07T07:04:28.611Z,10.73
2022-08-07T07:07:01.321Z,9.13
2022-08-07T07:09:31.747Z,9.50
2022-08-07T07:12:19.591Z,11.87
2022-08-07T07:14:57.102Z,7.25
2022-08-07T07:17:38.748Z,8.32
2022-08-07T07:20:11.753Z,13.40
2022-08-07T07:24:05.502Z,9.85
2022-08-07T07:26:35.897Z,12.68
2022-08-07T07:28:42.349Z,7.18
2022-08-07T07:31:07.166Z,10.40
2022-08-07T07:33:35.059Z,12.65
2022-08-07T07:36:04.434Z,7.05
2022-08-07T07:38:32.651Z,12.15
2022-08-07T07:41:03.230Z,11.52
2022-08-07T07:43:47.899Z,14.68
2022-08-07T07:46:40.606Z,8.13
2022-08-07T07:49:21.630Z,10.90
2022-08-07T07:51:58.424Z,7.88
2022-08-07T07:54:30.424Z,8.95
2022-08-07T07:57:00.491Z,7.82
2022-08-07T07:59:52.924Z,16.88
2022-08-07T08:02:33.659Z,13.57
2022-08-07T08:05:04.138Z,12.68
2022-08-07T08:07:35.681Z,7.78
2022-08-07T08:10:14.915Z,12.55
2022-08-07T08:13:02.854Z,14.65
2022-08-07T08:17:58.765Z,11.30
2022-08-07T08:20:44.158Z,13.23
2022-08-07T08:23:34.772Z,10.40
2022-08-07T08:26:21.265Z,12.85
2022-08-07T08:28:51.130Z,9.98
2022-08-07T08:31:30.316Z,10.65
2022-08-07T08:34:26.635Z,13.80
2022-08-07T08:36:57.725Z,12.38
2022-08-07T08:39:25.567Z,17.42
2022-08-07T08:42:10.139Z,11.43
2022-08-07T08:44:44.660Z,13.85
2022-08-07T08:47:51.899Z,12.32
2022-08-07T08:50:35.278Z,14.27
2022-08-07T08:53:09.293Z,12.25
2022-08-07T08:55:53.441Z,12.10
2022-08-07T08:58:31.432Z,11.52
2022-08-07T09:01:15.723Z,12.25
2022-08-07T09:03:52.920Z,12.27
2022-08-07T09:06:29.357Z,13.18
2022-08-07T09:09:00.538Z,12.20
2022-08-07T09:11:43.533Z,10.98
2022-08-07T09:14:37.657Z,11.73
2022-08-07T09:17:07.935Z,11.73
2022-08-07T09:19:55.203Z,10.60
2022-08-07T09:24:32.815Z,9.18
2022-08-07T09:25:24.359Z,8.27
2022-08-07T09:28:01.832Z,10.52
2022-08-07T09:30:52.910Z,9.57
2022-08-07T09:33:52.758Z,11.00
2022-08-07T09:36:35.330Z,8.15
2022-08-07T09:39:18.246Z,11.75
2022-08-07T09:42:04.064Z,12.20
2022-08-07T09:47:49.843Z,9.15
2022-08-07T09:48:06.171Z,10.82
2022-08-07T09:50:41.336Z,9.10
2022-08-07T09:53:12.622Z,11.00
2022-08-07T09:56:04.512Z,9.10
2022-08-07T09:58:48.814Z,11.55
2022-08-07T10:01:50.564Z,12.93
2022-08-07T10:04:39.233Z,10.77
2022-08-07T10:07:52.320Z,10.88
2022-08-07T10:10:21.656Z,8.45
2022-08-07T10:12:57.452Z,12.77
2022-08-07T10:15:24.067Z,8.55
2022-08-07T10:18:01.056Z,11.10
2022-08-07T10:20:32.145Z,8.57
2022-08-07T10:23:18.886Z,11.10
2022-08-07T10:26:24.822Z,11.85
2022-08-07T10:28:54.426Z,12.18
2022-08-07T10:31:52.410Z,11.40
2022-08-07T10:34:33.661Z,11.75
2022-08-07T10:37:18.736Z,13.20
2022-08-07T10:40:05.407Z,11.40
2022-08-07T10:42:36.914Z,13.57
2022-08-07T10:45:06.479Z,11.35
2022-08-07T10:48:03.355Z,15.30
2022-08-07T10:50:50.277Z,13.20
2022-08-07T10:53:23.437Z,14.57
2022-08-07T10:56:05.063Z,13.00
2022-08-07T10:58:36.413Z,12.32
2022-08-07T11:01:23.631Z,14.23
2022-08-07T11:04:16.744Z,12.18
2022-08-07T11:06:49.467Z,13.52
2022-08-07T11:10:08.487Z,14.50
2022-08-07T11:12:14.641Z,15.00
2022-08-07T11:15:04.239Z,13.23
2022-08-07T11:17:43.440Z,15.07
2022-08-07T11:20:22.547Z,13.85
2022-08-07T11:22:54.070Z,14.27
2022-08-07T11:25:50.158Z,12.45
2022-08-07T11:28:17.660Z,13.18
2022-08-07T11:31:02.631Z,14.02
2022-08-07T11:34:00.405Z,14.77
2022-08-07T11:36:45.730Z,12.98
2022-08-07T11:39:21.898Z,12.20
2022-08-07T11:42:03.353Z,12.63
2022-08-07T11:44:30.030Z,15.68
2022-08-07T11:46:57.078Z,13.38
2022-08-07T11:50:18.558Z,14.30
2022-08-07T11:52:35.664Z,15.18
2022-08-07T11:56:08.633Z,14.32
2022-08-07T11:58:20.816Z,12.45
2022-08-07T12:01:20.278Z,14.70
2022-08-07T12:03:53.172Z,12.30
2022-08-07T12:06:51.610Z,13.23
2022-08-07T12:09:35.508Z,16.02
2022-08-07T12:12:24.986Z,17.25
2022-08-07T12:15:03.261Z,18.75
2022-08-07T12:17:58.809Z,20.27
2022-08-07T12:20:45.197Z,16.80
2022-08-07T12:24:07.237Z,15.07
2022-08-07T12:26:34.406Z,15.40
2022-08-07T12:29:09.017Z,17.02
2022-08-07T12:32:03.687Z,16.52
2022-08-07T12:34:39.587Z,17.92
2022-08-07T12:37:17.040Z,21.90
2022-08-07T12:42:27.031Z,19.80
2022-08-07T12:44:58.359Z,24.02
2022-08-07T12:47:30.528Z,22.90
2022-08-07T12:50:05.029Z,20.70
2022-08-07T12:53:18.106Z,22.50
2022-08-07T12:56:10.076Z,19.30
2022-08-07T12:58:39.712Z,20.00
2022-08-07T13:01:07.806Z,20.95
2022-08-07T13:04:02.120Z,21.13
2022-08-07T13:07:00.696Z,22.52
2022-08-07T13:10:19.499Z,17.30
2022-08-07T13:12:33.045Z,22.42
2022-08-07T13:15:14.202Z,18.13
2022-08-07T13:17:51.261Z,17.17
2022-08-07T13:20:27.799Z,20.92
2022-08-07T13:23:59.866Z,19.48
2022-08-07T13:26:00.733Z,16.83
2022-08-07T13:28:48.361Z,17.58
2022-08-07T13:31:19.049Z,13.25
2022-08-07T13:34:33.577Z,14.20
2022-08-07T13:37:30.651Z,16.58
2022-08-07T13:40:36.127Z,15.40
2022-08-07T13:43:01.541Z,12.52
2022-08-07T13:46:12.109Z,14.82
2022-08-07T13:48:27.941Z,12.23
2022-08-07T13:51:02.371Z,14.48
2022-08-07T13:54:00.477Z,12.35
2022-08-07T13:56:36.405Z,11.02
2022-08-07T13:59:21.366Z,11.90
2022-08-07T14:01:59.106Z,12.57
2022-08-07T14:04:36.066Z,13.65
2022-08-07T14:07:09.786Z,13.00
2022-08-07T14:10:15.020Z,11.98
2022-08-07T14:12:31.026Z,12.50
2022-08-07T14:15:04.838Z,12.77
2022-08-07T14:18:27.488Z,14.35
2022-08-07T14:20:39.998Z,13.02
2022-08-07T14:23:11.974Z,17.13
2022-08-07T14:28:55.856Z,15.40
2022-08-07T14:31:13.430Z,15.13
2022-08-07T14:33:45.050Z,17.58
2022-08-07T14:36:14.902Z,19.75
2022-08-07T14:38:50.415Z,23.58
2022-08-07T14:41:33.863Z,18.95
2022-08-07T14:44:15.784Z,17.45
2022-08-07T14:46:51.851Z,20.65
2022-08-07T14:49:56.564Z,22.10
2022-08-07T14:52:22.326Z,22.65
2022-08-07T14:54:54.679Z,22.40
2022-08-07T14:57:23.748Z,21.17
2022-08-07T15:00:04.696Z,20.67
2022-08-07T15:02:34.566Z,24.73
2022-08-07T15:05:02.130Z,19.67
2022-08-07T15:07:47.319Z,18.80
2022-08-07T15:13:16.663Z,17.05
2022-08-07T15:15:52.790Z,15.85
2022-08-07T15:21:58.759Z,17.27
2022-08-07T15:25:15.440Z,19.42
2022-08-07T15:26:52.689Z,16.73
2022-08-07T15:30:04.494Z,15.75
2022-08-07T15:32:12.426Z,11.40
2022-08-07T15:34:50.432Z,12.38
2022-08-07T15:37:27.498Z,13.25
2022-08-07T15:40:33.741Z,11.43
2022-08-07T15:43:10.867Z,13.50
2022-08-07T15:49:03.713Z,10.90
2022-08-07T15:54:18.662Z,10.90
2022-08-07T15:56:46.118Z,10.60
2022-08-07T15:59:17.223Z,10.63
2022-08-07T16:02:02.441Z,11.43
2022-08-07T16:04:31.230Z,10.48
2022-08-07T16:07:00.151Z,10.82
2022-08-07T16:09:51.868Z,10.88
2022-08-07T16:12:38.053Z,12.20
2022-08-07T16:15:54.601Z,12.55
2022-08-07T16:18:43.493Z,13.32
2022-08-07T16:21:57.070Z,13.60
2022-08-07T16:24:02.002Z,10.70
2022-08-07T16:26:34.749Z,14.15
2022-08-07T16:30:06.124Z,11.20
2022-08-07T16:32:25.470Z,11.60
2022-08-07T16:34:57.546Z,13.77
2022-08-07T16:38:03.393Z,11.77
2022-08-07T16:40:56.792Z,10.38
2022-08-07T16:44:05.759Z,13.43
2022-08-07T16:47:07.767Z,13.77
2022-08-07T16:50:28.168Z,12.82
2022-08-07T16:52:51.850Z,14.60
2022-08-07T16:54:54.297Z,15.00
2022-08-07T16:58:02.622Z,14.82
2022-08-07T17:00:29.541Z,11.57
2022-08-07T17:03:17.442Z,12.47
2022-08-07T17:06:30.344Z,9.27
2022-08-07T17:09:13.952Z,8.98
2022-08-07T17:12:04.936Z,12.40
2022-08-07T17:14:34.111Z,8.30
2022-08-07T17:17:02.279Z,12.70
2022-08-07T17:20:01.806Z,8.80
2022-08-07T17:22:37.726Z,12.13
2022-08-07T17:25:18.200Z,11.27
2022-08-07T17:28:09.207Z,10.23
2022-08-07T17:30:57.814Z,10.98
2022-08-07T17:34:09.107Z,12.43
2022-08-07T17:36:20.242Z,10.35
2022-08-07T17:38:55.382Z,9.05
2022-08-07T17:42:01.836Z,8.07
2022-08-07T17:44:43.909Z,10.25
2022-08-07T17:47:16.898Z,11.15
2022-08-07T17:50:00.219Z,8.98
2022-08-07T17:52:46.063Z,12.15
2022-08-07T17:55:16.648Z,10.48
2022-08-07T17:58:08.702Z,10.45
2022-08-07T18:00:49.250Z,10.73
2022-08-07T18:03:20.807Z,8.77
2022-08-07T18:06:06.329Z,9.25
2022-08-07T18:08:36.139Z,7.47
2022-08-07T18:12:06.698Z,7.63
2022-08-07T18:14:16.414Z,8.23
2022-08-07T18:16:59.120Z,8.13
2022-08-07T18:21:02.973Z,8.65
2022-08-07T18:24:51.262Z,9.23
2022-08-07T18:27:38.486Z,10.98
2022-08-07T18:30:32.873Z,12.77
2022-08-07T18:33:21.728Z,8.93
2022-08-07T18:36:08.021Z,8.82
2022-08-07T18:38:59.710Z,12.13
2022-08-07T18:41:45.151Z,8.50
2022-08-07T18:44:22.347Z,9.35
2022-08-07T18:46:53.953Z,8.27
2022-08-07T18:50:19.274Z,10.02
2022-08-07T18:52:38.729Z,12.80
2022-08-07T18:55:41.584Z,12.48
2022-08-07T18:58:14.405Z,11.05
2022-08-07T19:00:53.679Z,12.98
2022-08-07T19:03:35.616Z,10.30
2022-08-07T19:06:16.903Z,9.52
2022-08-07T19:08:55.762Z,10.35
2022-08-07T19:11:38.215Z,8.85
2022-08-07T19:14:38.668Z,11.68
2022-08-07T19:17:17.481Z,10.20
2022-08-07T19:20:01.483Z,10.20
2022-08-07T19:22:44.786Z,11.55
2022-08-07T19:26:22.930Z,12.07
2022-08-07T19:28:57.315Z,14.20
2022-08-07T19:30:55.493Z,11.93
2022-08-07T19:33:34.756Z,13.63
2022-08-07T19:36:02.443Z,14.60
2022-08-07T19:38:30.569Z,10.70
2022-08-07T19:40:59.575Z,12.02
2022-08-07T19:43:50.224Z,15.80
2022-08-07T19:46:17.711Z,9.05
2022-08-07T19:48:53.520Z,11.45
2022-08-07T19:51:50.556Z,11.90
2022-08-07T19:54:32.177Z,13.25
2022-08-07T19:58:00.063Z,12.02
2022-08-07T19:59:47.872Z,10.93
2022-08-07T20:02:19.722Z,10.40
2022-08-07T20:04:50.040Z,10.07
2022-08-07T20:07:23.519Z,9.27
2022-08-07T20:10:36.181Z,8.85
2022-08-07T20:12:43.060Z,8.55
2022-08-07T20:15:18.838Z,5.63
2022-08-07T20:18:01.729Z,7.25
2022-08-07T20:20:31.588Z,7.70
2022-08-07T20:23:10.773Z,7.10
2022-08-07T20:25:50.911Z,9.18
2022-08-07T20:28:21.683Z,6.47
2022-08-07T20:30:56.695Z,6.13
2022-08-07T20:33:38.169Z,7.15
2022-08-07T20:36:06.637Z,6.25
2022-08-07T20:38:35.243Z,7.90
2022-08-07T20:41:20.920Z,5.93
2022-08-07T20:43:48.097Z,8.07
2022-08-07T20:46:28.293Z,11.73
2022-08-07T20:49:59.944Z,8.07
2022-08-07T20:51:50.223Z,10.15
2022-08-07T20:54:29.635Z,8.40
2022-08-07T20:57:04.229Z,8.13
2022-08-07T21:00:08.251Z,7.60
2022-08-07T21:02:40.389Z,6.53
2022-08-07T21:05:10.235Z,8.68
2022-08-07T21:07:43.624Z,8.35
2022-08-07T21:10:25.247Z,8.35
2022-08-07T21:12:59.775Z,8.32
2022-08-07T21:15:58.468Z,8.05
2022-08-07T21:18:20.255Z,8.40
2022-08-07T21:21:00.498Z,8.38
2022-08-07T21:23:50.412Z,7.93
2022-08-07T21:26:31.323Z,9.20
2022-08-07T21:29:05.394Z,5.88
2022-08-07T21:32:42.874Z,6.15
2022-08-07T21:34:51.489Z,7.60
2022-08-07T21:37:58.737Z,7.75
2022-08-07T21:40:35.941Z,9.90
2022-08-07T21:46:10.514Z,7.07
2022-08-07T21:48:34.454Z,7.28
2022-08-07T21:51:20.306Z,6.35
2022-08-07T21:53:53.684Z,4.72
2022-08-07T21:56:47.741Z,6.57
2022-08-07T21:59:20.630Z,6.88
2022-08-07T22:02:10.545Z,6.30
2022-08-07T22:04:52.727Z,8.50
2022-08-07T22:09:55.061Z,7.97
2022-08-07T22:12:31.753Z,9.60
2022-08-07T22:15:02.270Z,5.85
2022-08-07T22:17:36.013Z,5.95
2022-08-07T22:20:03.940Z,5.63
2022-08-07T22:22:36.645Z,6.60
2022-08-07T22:25:11.189Z,7.00
2022-08-07T22:28:07.548Z,8.63
2022-08-07T22:30:34.767Z,6.30
2022-08-07T22:33:12.802Z,8.10
2022-08-07T22:36:04.578Z,10.32
2022-08-07T22:38:34.001Z,7.80
2022-08-07T22:41:02.837Z,9.57
2022-08-07T22:43:47.910Z,6.57
2022-08-07T22:46:42.746Z,8.40
2022-08-07T22:49:15.803Z,8.82
2022-08-07T22:52:03.084Z,8.70
2022-08-07T22:54:51.355Z,6.68
2022-08-07T22:57:37.378Z,5.65
2022-08-07T23:00:28.553Z,7.82
2022-08-07T23:02:55.579Z,6.97
2022-08-07T23:06:14.752Z,5.57
2022-08-07T23:08:38.137Z,6.75
2022-08-07T23:11:17.520Z,7.55
2022-08-07T23:14:08.977Z,6.70
2022-08-07T23:16:58.511Z,9.30
2022-08-07T23:20:03.280Z,6.38
2022-08-07T23:22:39.081Z,7.78
2022-08-07T23:25:13.177Z,6.68
2022-08-07T23:28:22.772Z,6.55
2022-08-07T23:31:06.280Z,4.80
2022-08-07T23:34:21.451Z,11.50
2022-08-07T23:36:29.784Z,6.72
2022-08-07T23:39:15.181Z,5.43
2022-08-07T23:42:05.397Z,4.35
2022-08-07T23:44:51.470Z,6.95
2022-08-07T23:47:42.257Z,5.97
2022-08-07T23:50:16.638Z,5.80
2022-08-07T23:52:58.252Z,6.22
2022-08-07T23:55:51.695Z,7.00
2022-08-07T23:58:39.549Z,4.90
